Time;durP1;ratioP1;P1;durP2;ratioP2;P2;SDS_P1;SDS_P2;PMS_P1;PMS_P2;Temp;Humidity;BMP_temperature;BMP_pressure;BME280_temperature;BME280_humidity;BME280_pressure;Samples;Min_cycle;Max_cycle;Signal;HPM_P1;HPM_P2
2023/02/19 00:01:24;;;;;;;24.88;10.52;;;6.40;99.90;;;;;;5059974;28;20098;-73
2023/02/19 00:03:53;;;;;;;27.58;10.50;;;6.40;99.90;;;;;;5044829;28;20049;-72
2023/02/19 00:06:21;;;;;;;28.30;10.43;;;6.40;99.90;;;;;;5043028;28;20895;-74
2023/02/19 00:08:47;;;;;;;30.23;10.80;;;6.30;99.90;;;;;;5044643;28;20045;-73
2023/02/19 00:11:18;;;;;;;24.17;8.90;;;6.40;99.90;;;;;;5043273;28;20033;-73
2023/02/19 00:13:45;;;;;;;19.33;8.60;;;6.30;99.90;;;;;;5043305;28;20029;-74
2023/02/19 00:16:17;;;;;;;22.30;8.07;;;6.30;99.90;;;;;;5043233;28;20052;-71
2023/02/19 00:18:44;;;;;;;17.75;7.55;;;6.30;99.90;;;;;;5042238;28;20037;-71
2023/02/19 00:21:09;;;;;;;18.23;7.68;;;6.30;99.90;;;;;;5044474;28;20029;-72
2023/02/19 00:23:35;;;;;;;16.30;7.10;;;6.20;99.90;;;;;;5043169;28;20473;-70
2023/02/19 00:26:03;;;;;;;18.45;7.35;;;6.10;99.90;;;;;;5044769;28;20022;-73
2023/02/19 00:28:28;;;;;;;17.60;6.95;;;6.10;99.90;;;;;;5044078;28;20068;-71
2023/02/19 00:30:54;;;;;;;15.88;7.15;;;6.10;99.90;;;;;;5044554;28;20029;-72
2023/02/19 00:33:20;;;;;;;10.98;5.68;;;6.20;99.90;;;;;;5044559;28;20025;-72
2023/02/19 00:35:45;;;;;;;16.52;6.10;;;6.00;99.90;;;;;;5043002;28;20036;-70
2023/02/19 00:38:11;;;;;;;14.65;5.80;;;6.00;99.90;;;;;;5044281;28;20053;-72
2023/02/19 00:40:37;;;;;;;12.63;5.57;;;5.90;99.90;;;;;;5044401;28;20152;-71
2023/02/19 00:43:03;;;;;;;12.23;5.40;;;5.90;99.90;;;;;;5043183;28;20064;-74
2023/02/19 00:45:29;;;;;;;16.50;6.07;;;5.90;99.90;;;;;;5042253;28;20116;-71
2023/02/19 00:47:54;;;;;;;11.75;5.55;;;5.90;99.90;;;;;;5059285;28;20119;-70
2023/02/19 00:50:20;;;;;;;16.65;6.15;;;5.90;99.90;;;;;;5042573;28;20032;-72
2023/02/19 00:52:46;;;;;;;13.73;5.95;;;5.90;99.90;;;;;;5043804;28;20029;-71
2023/02/19 00:55:11;;;;;;;13.50;6.07;;;5.90;99.90;;;;;;5043105;28;20097;-73
2023/02/19 00:57:37;;;;;;;12.10;6.30;;;5.90;99.90;;;;;;5044092;28;20029;-71
2023/02/19 01:00:05;;;;;;;17.10;6.32;;;5.90;99.90;;;;;;5042624;28;20511;-71
2023/02/19 01:02:31;;;;;;;14.98;6.22;;;5.90;99.90;;;;;;5042553;28;20089;-72
2023/02/19 01:04:57;;;;;;;14.18;6.82;;;5.90;99.90;;;;;;5042722;28;20029;-72
2023/02/19 01:07:23;;;;;;;17.35;6.22;;;5.80;99.90;;;;;;5043937;28;20029;-73
2023/02/19 01:09:48;;;;;;;13.38;6.30;;;5.90;99.90;;;;;;5043864;28;20021;-71
2023/02/19 01:12:14;;;;;;;15.25;6.47;;;5.90;99.90;;;;;;5043624;28;20026;-70
2023/02/19 01:14:39;;;;;;;15.65;6.97;;;5.80;99.90;;;;;;5043262;28;20053;-71
2023/02/19 01:17:05;;;;;;;16.67;6.00;;;5.80;99.90;;;;;;5042529;28;20026;-70
2023/02/19 01:19:30;;;;;;;15.68;7.10;;;5.80;99.90;;;;;;5043636;28;21329;-74
2023/02/19 01:21:56;;;;;;;15.30;6.80;;;5.80;99.90;;;;;;5043461;28;20042;-72
2023/02/19 01:24:22;;;;;;;16.95;6.72;;;5.70;99.90;;;;;;5042083;28;20049;-70
2023/02/19 01:26:47;;;;;;;14.88;6.72;;;5.70;99.90;;;;;;5043459;28;20033;-72
2023/02/19 01:29:13;;;;;;;16.30;7.05;;;5.70;99.90;;;;;;5042128;28;20028;-71
2023/02/19 01:31:39;;;;;;;17.48;7.28;;;5.70;99.90;;;;;;5041480;28;20049;-73
2023/02/19 01:34:05;;;;;;;18.50;8.05;;;5.60;99.90;;;;;;5041882;28;20089;-71
2023/02/19 01:36:32;;;;;;;16.70;7.55;;;5.60;99.90;;;;;;5041298;28;20053;-72
2023/02/19 01:39:03;;;;;;;15.85;8.05;;;5.70;99.90;;;;;;5041737;28;20116;-71
2023/02/19 01:41:31;;;;;;;15.35;7.22;;;5.70;99.90;;;;;;5043001;28;20029;-72
2023/02/19 01:43:56;;;;;;;21.20;8.63;;;5.70;99.90;;;;;;5043156;28;20140;-71
2023/02/19 01:46:36;;;;;;;18.17;8.05;;;5.70;99.90;;;;;;5041253;28;20061;-71
2023/02/19 01:49:09;;;;;;;21.02;8.25;;;5.60;99.90;;;;;;5039663;28;20100;-74
2023/02/19 01:51:38;;;;;;;18.45;7.65;;;5.70;99.90;;;;;;5042460;28;20039;-71
2023/02/19 01:54:06;;;;;;;17.77;7.70;;;5.80;99.90;;;;;;5041685;28;20029;-72
2023/02/19 01:56:35;;;;;;;16.55;7.45;;;5.70;99.90;;;;;;5042406;28;20018;-72
2023/02/19 01:59:01;;;;;;;17.10;7.35;;;5.80;99.90;;;;;;5043037;28;20045;-72
2023/02/19 02:01:27;;;;;;;19.55;7.55;;;5.80;99.90;;;;;;5041413;28;20054;-71
2023/02/19 02:03:52;;;;;;;19.25;8.07;;;5.70;99.90;;;;;;5042012;28;20032;-71
2023/02/19 02:06:29;;;;;;;18.25;7.32;;;5.80;99.90;;;;;;5041391;28;20057;-70
2023/02/19 02:11:48;;;;;;;16.67;7.47;;;5.80;99.90;;;;;;5042359;28;20055;-71
2023/02/19 02:14:14;;;;;;;17.98;7.35;;;5.70;99.90;;;;;;5041216;28;20088;-70
2023/02/19 02:16:40;;;;;;;15.98;7.30;;;5.70;99.90;;;;;;5042157;28;20029;-70
2023/02/19 02:19:14;;;;;;;15.63;7.05;;;5.80;99.90;;;;;;5042465;28;20076;-70
2023/02/19 02:22:02;;;;;;;13.35;6.18;;;5.60;99.90;;;;;;5042461;28;20033;-71
2023/02/19 02:24:48;;;;;;;11.13;5.57;;;5.60;99.90;;;;;;5041998;28;20045;-72
2023/02/19 02:27:38;;;;;;;12.15;5.22;;;5.60;99.90;;;;;;5040922;28;20038;-71
2023/02/19 02:30:28;;;;;;;10.90;5.10;;;5.60;99.90;;;;;;5042225;28;20033;-72
2023/02/19 02:33:13;;;;;;;10.48;5.18;;;5.50;99.90;;;;;;5042211;28;20025;-72
2023/02/19 02:35:46;;;;;;;11.32;4.72;;;5.50;99.90;;;;;;5041037;28;20037;-70
2023/02/19 02:38:13;;;;;;;13.40;5.20;;;5.60;99.90;;;;;;5042166;28;20124;-74
2023/02/19 02:40:42;;;;;;;8.48;4.22;;;5.40;99.90;;;;;;5040638;28;20026;-72
2023/02/19 02:43:08;;;;;;;9.90;4.88;;;5.40;99.90;;;;;;5042514;28;20099;-70
2023/02/19 02:45:34;;;;;;;10.60;4.35;;;5.50;99.90;;;;;;5042118;28;20044;-72
2023/02/19 02:48:05;;;;;;;12.95;4.50;;;5.40;99.90;;;;;;5040164;28;20065;-71
2023/02/19 02:50:41;;;;;;;12.15;4.80;;;5.40;99.90;;;;;;5042008;28;20036;-72
2023/02/19 02:56:01;;;;;;;10.77;3.60;;;5.40;99.90;;;;;;5042074;28;20040;-73
2023/02/19 02:58:29;;;;;;;11.27;3.97;;;5.40;99.90;;;;;;5040577;28;20034;-72
2023/02/19 03:03:53;;;;;;;11.13;3.65;;;5.30;99.90;;;;;;5041332;28;20036;-73
2023/02/19 03:06:21;;;;;;;11.48;3.75;;;5.50;99.90;;;;;;5041665;28;20022;-71
2023/02/19 03:09:27;;;;;;;14.55;3.28;;;5.30;99.90;;;;;;5039877;28;20041;-72
2023/02/19 03:20:23;;;;;;;9.10;2.85;;;5.30;99.90;;;;;;5040065;28;20047;-72
2023/02/19 03:22:51;;;;;;;7.38;2.47;;;5.20;99.90;;;;;;5040223;28;20037;-73
2023/02/19 03:28:16;;;;;;;6.93;2.20;;;5.30;99.90;;;;;;5040551;28;20044;-72
2023/02/19 03:30:48;;;;;;;15.07;2.63;;;5.20;99.90;;;;;;5040804;28;20036;-75
2023/02/19 03:33:19;;;;;;;10.82;2.53;;;5.20;99.90;;;;;;5041030;28;20029;-75
2023/02/19 03:35:55;;;;;;;10.68;2.08;;;5.20;99.90;;;;;;5040878;28;20018;-76
2023/02/19 03:38:24;;;;;;;7.05;2.50;;;5.30;99.90;;;;;;5040767;28;20037;-74
2023/02/19 03:40:49;;;;;;;8.65;2.38;;;5.30;99.90;;;;;;5040812;28;20119;-72
2023/02/19 03:43:33;;;;;;;6.97;2.00;;;5.30;99.90;;;;;;5039512;28;20026;-74
2023/02/19 03:46:10;;;;;;;8.73;2.10;;;5.30;99.90;;;;;;5040900;28;20025;-74
2023/02/19 03:48:47;;;;;;;6.07;1.58;;;5.20;99.90;;;;;;5040871;28;20041;-73
2023/02/19 03:51:33;;;;;;;9.75;1.88;;;5.30;99.90;;;;;;5038198;28;20171;-75
2023/02/19 03:54:14;;;;;;;9.38;2.08;;;5.20;99.90;;;;;;5039793;28;20041;-76
2023/02/19 03:56:46;;;;;;;6.22;1.83;;;5.30;99.90;;;;;;5039018;28;20474;-73
2023/02/19 03:59:42;;;;;;;10.80;2.10;;;5.20;99.90;;;;;;5040540;28;20178;-72
2023/02/19 04:02:14;;;;;;;5.78;1.45;;;5.10;99.90;;;;;;5039455;28;20025;-73
2023/02/19 04:04:51;;;;;;;6.35;1.45;;;5.10;99.90;;;;;;5040045;28;20033;-73
2023/02/19 04:07:17;;;;;;;5.70;1.20;;;5.20;99.90;;;;;;5040356;28;20045;-74
2023/02/19 04:09:47;;;;;;;4.35;1.20;;;5.10;99.90;;;;;;5040689;28;20085;-74
2023/02/19 04:12:14;;;;;;;10.27;1.50;;;5.20;99.90;;;;;;5040569;28;20022;-75
2023/02/19 04:15:03;;;;;;;6.25;1.30;;;5.30;99.90;;;;;;5040425;28;20036;-73
2023/02/19 04:17:36;;;;;;;9.25;1.40;;;5.10;99.90;;;;;;5040588;28;20030;-74
2023/02/19 04:20:06;;;;;;;8.05;1.60;;;5.10;99.90;;;;;;5040657;28;20028;-75
2023/02/19 04:22:33;;;;;;;5.50;1.40;;;5.10;99.90;;;;;;5040065;28;20093;-75
2023/02/19 04:24:59;;;;;;;8.98;1.73;;;5.20;99.90;;;;;;5039625;28;20534;-73
2023/02/19 04:27:25;;;;;;;5.25;1.80;;;5.10;99.90;;;;;;5044148;28;20159;-72
2023/02/19 04:29:51;;;;;;;9.75;2.05;;;5.10;99.90;;;;;;5043967;28;20895;-71
2023/02/19 04:32:16;;;;;;;5.55;1.70;;;5.10;99.90;;;;;;5042742;28;20097;-73
2023/02/19 04:34:42;;;;;;;5.72;1.70;;;5.10;99.90;;;;;;5043667;28;20029;-73
2023/02/19 04:37:07;;;;;;;11.18;2.25;;;5.10;99.90;;;;;;5041642;28;20036;-74
2023/02/19 04:39:33;;;;;;;11.30;1.92;;;5.10;99.90;;;;;;5043281;28;20390;-73
2023/02/19 04:41:58;;;;;;;8.07;2.10;;;5.10;99.90;;;;;;5044065;28;20113;-72
2023/02/19 04:44:24;;;;;;;7.95;2.10;;;5.00;99.90;;;;;;5044582;28;21449;-70
2023/02/19 04:46:50;;;;;;;10.57;2.08;;;5.10;99.90;;;;;;5043029;28;20027;-72
2023/02/19 04:49:15;;;;;;;5.45;1.77;;;5.10;99.90;;;;;;5044370;28;20037;-73
2023/02/19 04:51:41;;;;;;;18.27;3.05;;;5.10;99.90;;;;;;5044359;28;20039;-72
2023/02/19 04:54:07;;;;;;;10.98;2.42;;;5.10;99.90;;;;;;5044239;28;20105;-74
2023/02/19 04:56:32;;;;;;;13.27;2.15;;;5.00;99.90;;;;;;5042827;28;20124;-73
2023/02/19 04:58:58;;;;;;;6.93;2.05;;;5.10;99.90;;;;;;5043999;28;20430;-72
2023/02/19 05:01:26;;;;;;;10.88;2.38;;;5.10;99.90;;;;;;5040901;28;20037;-74
2023/02/19 05:03:52;;;;;;;8.27;2.17;;;5.10;99.90;;;;;;5042527;28;20496;-73
2023/02/19 05:06:17;;;;;;;8.52;2.53;;;5.10;99.90;;;;;;5043883;28;20033;-73
2023/02/19 05:08:43;;;;;;;8.13;2.38;;;5.10;99.90;;;;;;5042458;28;20056;-72
2023/02/19 05:11:10;;;;;;;8.30;2.38;;;5.10;99.90;;;;;;5041587;28;20037;-72
2023/02/19 05:13:36;;;;;;;9.55;2.83;;;5.00;99.90;;;;;;5043864;28;20026;-74
2023/02/19 05:16:14;;;;;;;9.75;2.78;;;5.00;99.90;;;;;;5043984;28;20029;-72
2023/02/19 05:18:41;;;;;;;6.75;2.30;;;5.00;99.90;;;;;;5042192;28;20025;-72
2023/02/19 05:21:07;;;;;;;11.98;2.50;;;5.10;99.90;;;;;;5043878;28;20026;-74
2023/02/19 05:23:32;;;;;;;9.38;2.83;;;5.00;99.90;;;;;;5041410;28;20064;-75
2023/02/19 05:25:58;;;;;;;9.23;2.80;;;5.00;99.90;;;;;;5042498;28;20021;-72
2023/02/19 05:28:30;;;;;;;14.90;3.13;;;5.00;99.90;;;;;;5042143;28;20042;-71
2023/02/19 05:30:56;;;;;;;9.23;3.08;;;5.20;99.90;;;;;;5040949;28;20041;-73
2023/02/19 05:33:24;;;;;;;11.32;3.15;;;5.00;99.90;;;;;;5041249;28;20030;-72
2023/02/19 05:35:53;;;;;;;12.70;3.00;;;5.10;99.90;;;;;;5041384;28;20022;-71
2023/02/19 05:38:19;;;;;;;11.40;2.95;;;4.90;99.90;;;;;;5039637;28;20028;-72
2023/02/19 05:40:45;;;;;;;11.15;2.92;;;4.90;99.90;;;;;;5041508;28;20017;-71
2023/02/19 05:43:12;;;;;;;9.63;3.13;;;4.90;99.90;;;;;;5042374;28;20025;-73
2023/02/19 05:45:38;;;;;;;11.18;3.05;;;4.90;99.90;;;;;;5040132;28;20021;-74
2023/02/19 05:48:05;;;;;;;10.82;2.53;;;4.80;99.90;;;;;;5042834;28;20410;-75
2023/02/19 05:50:32;;;;;;;8.27;2.10;;;4.80;99.90;;;;;;5042492;28;20023;-72
2023/02/19 05:53:04;;;;;;;9.25;2.65;;;4.80;99.90;;;;;;5042969;28;20128;-76
2023/02/19 05:55:33;;;;;;;8.40;3.10;;;4.70;99.90;;;;;;5041389;28;20022;-74
2023/02/19 05:57:59;;;;;;;15.57;3.75;;;4.70;99.90;;;;;;5042574;28;20068;-74
2023/02/19 06:00:26;;;;;;;7.63;2.28;;;4.80;99.90;;;;;;5042499;28;20430;-73
2023/02/19 06:02:52;;;;;;;7.47;2.53;;;4.70;99.90;;;;;;5039369;28;20033;-75
2023/02/19 06:05:18;;;;;;;6.88;2.45;;;4.70;99.90;;;;;;5040873;28;20077;-74
2023/02/19 06:07:43;;;;;;;8.73;2.58;;;4.60;99.90;;;;;;5042276;28;20080;-75
2023/02/19 06:10:10;;;;;;;11.43;2.70;;;4.60;99.90;;;;;;5039861;28;20029;-71
2023/02/19 06:12:36;;;;;;;9.73;2.85;;;4.60;99.90;;;;;;5042645;28;20022;-71
2023/02/19 06:15:03;;;;;;;9.43;3.08;;;4.60;99.90;;;;;;5041345;28;20475;-73
2023/02/19 06:17:29;;;;;;;12.70;2.97;;;4.50;99.90;;;;;;5040698;28;20026;-73
2023/02/19 06:19:55;;;;;;;10.18;3.05;;;4.50;99.90;;;;;;5042649;28;20037;-73
2023/02/19 06:22:20;;;;;;;14.18;3.47;;;4.50;99.90;;;;;;5041352;28;20048;-72
2023/02/19 06:24:47;;;;;;;14.93;3.60;;;4.50;99.90;;;;;;5040912;28;20052;-73
2023/02/19 06:27:13;;;;;;;16.90;4.10;;;4.50;99.90;;;;;;5039965;28;20065;-73
2023/02/19 06:29:38;;;;;;;21.75;3.85;;;4.40;99.90;;;;;;5038058;28;20430;-74
2023/02/19 06:32:05;;;;;;;12.38;3.97;;;4.40;99.90;;;;;;5041173;28;20387;-71
2023/02/19 06:34:32;;;;;;;13.18;4.10;;;4.50;99.90;;;;;;5042112;28;20396;-72
2023/02/19 06:36:58;;;;;;;15.88;4.07;;;4.50;99.90;;;;;;5042523;28;20486;-75
2023/02/19 06:39:25;;;;;;;16.20;4.82;;;4.50;99.90;;;;;;5039060;28;20067;-72
2023/02/19 06:41:53;;;;;;;11.40;3.70;;;4.50;99.90;;;;;;5037338;28;20036;-71
2023/02/19 06:44:19;;;;;;;15.52;3.97;;;4.50;99.90;;;;;;5040194;28;20065;-71
2023/02/19 06:46:45;;;;;;;13.80;3.55;;;4.40;99.90;;;;;;5039343;28;20036;-73
2023/02/19 06:49:10;;;;;;;14.52;3.78;;;4.40;99.90;;;;;;5037757;28;20049;-73
2023/02/19 06:51:36;;;;;;;11.88;3.85;;;4.40;99.90;;;;;;5040123;28;20027;-73
2023/02/19 06:54:02;;;;;;;15.07;3.72;;;4.50;99.90;;;;;;5040898;28;20049;-73
2023/02/19 06:56:38;;;;;;;13.27;3.92;;;4.50;99.90;;;;;;5038938;28;20025;-72
2023/02/19 06:59:07;;;;;;;9.48;3.20;;;4.40;99.90;;;;;;5038556;28;20041;-74
2023/02/19 07:01:34;;;;;;;10.63;3.45;;;4.40;99.90;;;;;;5040503;28;20063;-73
2023/02/19 07:04:00;;;;;;;9.90;3.35;;;4.40;99.90;;;;;;5040385;28;20101;-73
2023/02/19 07:06:30;;;;;;;14.38;3.45;;;4.40;99.90;;;;;;5037729;28;20057;-74
2023/02/19 07:08:57;;;;;;;10.65;3.63;;;4.40;99.90;;;;;;5039270;28;20045;-75
2023/02/19 07:11:24;;;;;;;13.50;4.75;;;4.30;99.90;;;;;;5038161;28;20171;-73
2023/02/19 07:13:56;;;;;;;18.92;5.25;;;4.30;99.90;;;;;;5040360;28;20034;-72
2023/02/19 07:16:22;;;;;;;15.88;4.35;;;4.30;99.90;;;;;;5032801;28;20101;-72
2023/02/19 07:18:48;;;;;;;12.65;4.13;;;4.30;99.90;;;;;;5025756;28;20174;-72
2023/02/19 07:21:16;;;;;;;8.93;3.50;;;4.40;99.90;;;;;;5033068;28;20391;-73
2023/02/19 07:23:42;;;;;;;15.48;4.35;;;4.40;99.90;;;;;;5039503;28;20066;-73
2023/02/19 07:26:12;;;;;;;14.23;3.80;;;4.40;99.90;;;;;;5040250;28;20116;-74
2023/02/19 07:28:46;;;;;;;21.27;3.90;;;4.50;99.90;;;;;;5038254;28;20065;-73
2023/02/19 07:31:12;;;;;;;10.60;3.00;;;4.60;99.90;;;;;;5038308;28;20034;-71
2023/02/19 07:33:38;;;;;;;17.02;5.50;;;4.70;99.90;;;;;;5041299;28;20056;-73
2023/02/19 07:36:06;;;;;;;16.45;4.55;;;4.70;99.90;;;;;;5038924;28;20026;-71
2023/02/19 07:38:31;;;;;;;37.63;15.02;;;4.70;99.90;;;;;;5041700;28;20061;-71
2023/02/19 07:40:59;;;;;;;16.75;5.68;;;4.70;99.90;;;;;;5039549;28;20394;-72
2023/02/19 07:43:27;;;;;;;13.02;5.15;;;4.70;99.90;;;;;;5040392;28;20029;-74
2023/02/19 07:45:53;;;;;;;19.48;7.70;;;4.70;99.90;;;;;;5039933;28;20629;-74
2023/02/19 07:48:19;;;;;;;26.73;8.23;;;4.70;99.90;;;;;;5041038;28;20026;-73
2023/02/19 07:50:56;;;;;;;16.25;5.88;;;4.70;99.90;;;;;;5039994;28;20035;-71
2023/02/19 07:53:22;;;;;;;21.85;7.50;;;4.70;99.90;;;;;;5040098;28;20045;-72
2023/02/19 07:55:48;;;;;;;13.45;5.13;;;4.70;99.90;;;;;;5039941;28;20036;-73
2023/02/19 07:58:14;;;;;;;22.95;7.00;;;4.80;99.90;;;;;;5040263;28;20036;-72
2023/02/19 08:00:40;;;;;;;21.27;9.00;;;4.80;99.90;;;;;;5042006;28;20104;-73
2023/02/19 08:03:06;;;;;;;16.48;5.35;;;4.80;99.90;;;;;;5045255;28;20053;-73
2023/02/19 08:05:36;;;;;;;19.42;6.07;;;4.90;99.90;;;;;;5044315;28;20018;-71
2023/02/19 08:08:04;;;;;;;26.33;8.05;;;5.00;99.90;;;;;;5044810;28;20049;-73
2023/02/19 08:13:18;;;;;;;19.35;6.35;;;5.30;99.90;;;;;;5044529;28;20036;-72
2023/02/19 08:15:52;;;;;;;16.23;6.07;;;5.60;99.90;;;;;;5042383;28;20101;-73
2023/02/19 08:18:20;;;;;;;20.73;6.50;;;5.80;99.90;;;;;;5043213;28;20392;-72
2023/02/19 08:20:46;;;;;;;13.60;5.03;;;6.10;99.90;;;;;;5043186;28;20093;-73
2023/02/19 08:23:12;;;;;;;20.38;5.65;;;6.40;99.90;;;;;;5041991;28;20073;-72
2023/02/19 08:25:39;;;;;;;13.60;5.10;;;6.80;99.90;;;;;;5043216;28;20025;-73
2023/02/19 08:28:06;;;;;;;18.98;9.63;;;7.00;99.90;;;;;;5043626;28;20049;-71
2023/02/19 08:30:32;;;;;;;12.02;4.85;;;7.20;99.90;;;;;;5041552;28;20022;-73
2023/02/19 08:32:59;;;;;;;13.55;4.63;;;7.20;99.90;;;;;;5042315;28;20022;-70
2023/02/19 08:35:26;;;;;;;11.32;3.97;;;7.30;99.90;;;;;;5041155;28;20047;-74
2023/02/19 08:37:55;;;;;;;12.48;3.97;;;7.40;99.90;;;;;;5042782;28;20034;-73
2023/02/19 08:40:21;;;;;;;9.55;3.38;;;7.50;99.90;;;;;;5044070;28;20022;-74
2023/02/19 08:42:46;;;;;;;9.70;4.15;;;7.70;99.90;;;;;;5042842;28;20018;-73
2023/02/19 08:45:12;;;;;;;11.23;3.47;;;7.90;99.90;;;;;;5044468;28;20132;-71
2023/02/19 08:47:38;;;;;;;12.35;3.55;;;8.00;99.90;;;;;;5044241;28;20041;-71
2023/02/19 08:50:05;;;;;;;11.90;3.38;;;8.10;99.90;;;;;;5044288;28;20034;-74
2023/02/19 08:52:31;;;;;;;12.75;3.33;;;8.10;99.90;;;;;;5042774;28;20018;-72
2023/02/19 08:54:57;;;;;;;12.98;3.13;;;8.20;99.90;;;;;;5043236;28;20037;-74
2023/02/19 08:57:22;;;;;;;28.33;9.75;;;8.30;99.90;;;;;;5044181;28;20068;-72
2023/02/19 08:59:48;;;;;;;25.45;9.18;;;8.40;99.90;;;;;;5041750;28;20014;-74
2023/02/19 09:02:13;;;;;;;13.00;5.20;;;8.40;99.90;;;;;;5043905;28;20021;-72
2023/02/19 09:04:39;;;;;;;14.63;3.10;;;8.50;99.90;;;;;;5041790;28;20029;-73
2023/02/19 09:07:09;;;;;;;26.65;9.55;;;8.60;99.90;;;;;;5042763;28;20017;-72
2023/02/19 09:09:39;;;;;;;13.27;4.38;;;8.60;99.90;;;;;;5043608;28;20025;-73
2023/02/19 09:12:06;;;;;;;20.90;7.45;;;8.80;99.90;;;;;;5043605;28;20045;-73
2023/02/19 09:14:33;;;;;;;11.00;3.70;;;8.90;99.90;;;;;;5042147;28;20108;-73
2023/02/19 09:16:59;;;;;;;7.22;3.55;;;9.00;99.90;;;;;;5042039;28;20801;-74
2023/02/19 09:19:26;;;;;;;9.93;2.47;;;9.00;99.90;;;;;;5040274;28;22447;-74
2023/02/19 09:21:52;;;;;;;8.20;2.10;;;9.00;99.90;;;;;;5038669;28;20068;-73
2023/02/19 09:24:17;;;;;;;10.73;3.00;;;9.00;99.90;;;;;;5041232;28;20041;-75
2023/02/19 09:26:43;;;;;;;6.75;2.47;;;9.00;99.90;;;;;;5043532;28;20059;-73
2023/02/19 09:29:09;;;;;;;5.75;2.30;;;8.90;99.90;;;;;;5042298;28;20029;-74
2023/02/19 09:31:34;;;;;;;6.32;1.85;;;8.80;99.90;;;;;;5041793;28;20038;-71
2023/02/19 09:34:00;;;;;;;8.13;2.20;;;8.70;99.90;;;;;;5042107;28;20067;-70
2023/02/19 09:36:25;;;;;;;8.00;1.55;;;8.60;99.90;;;;;;5040048;28;20045;-72
2023/02/19 09:38:51;;;;;;;11.48;2.50;;;8.70;99.90;;;;;;5040394;28;20025;-72
2023/02/19 09:41:31;;;;;;;6.22;1.88;;;8.50;99.90;;;;;;5036824;28;20026;-72
2023/02/19 09:43:59;;;;;;;4.65;1.23;;;8.50;99.90;;;;;;5040262;28;20383;-70
2023/02/19 09:46:43;;;;;;;7.97;1.75;;;8.50;99.90;;;;;;5040170;28;20025;-74
2023/02/19 09:49:26;;;;;;;4.63;1.35;;;8.60;99.90;;;;;;5039072;28;20045;-70
2023/02/19 09:51:56;;;;;;;6.90;2.00;;;8.50;99.90;;;;;;5040691;28;20052;-72
2023/02/19 09:54:26;;;;;;;7.65;1.70;;;8.40;99.90;;;;;;5041741;28;20017;-74
2023/02/19 09:56:56;;;;;;;8.07;1.40;;;8.30;99.90;;;;;;5040375;28;20033;-75
2023/02/19 09:59:30;;;;;;;7.80;2.22;;;8.40;99.90;;;;;;5041175;28;20092;-74
2023/02/19 10:02:14;;;;;;;8.77;2.25;;;8.60;99.90;;;;;;5042594;28;20056;-71
2023/02/19 10:04:42;;;;;;;8.80;2.55;;;9.00;99.90;;;;;;5040029;28;20071;-75
2023/02/19 10:07:44;;;;;;;7.88;2.20;;;9.30;99.90;;;;;;5039724;28;20052;-72
2023/02/19 10:10:13;;;;;;;11.27;1.77;;;9.70;99.90;;;;;;4983828;28;20922;-73
2023/02/19 10:12:51;;;;;;;6.57;1.45;;;9.50;99.90;;;;;;5033610;28;20037;-75
2023/02/19 10:15:28;;;;;;;6.90;1.27;;;9.30;99.90;;;;;;5041040;28;20028;-74
2023/02/19 10:17:53;;;;;;;9.30;1.42;;;9.40;99.90;;;;;;5039930;28;20608;-72
2023/02/19 10:20:23;;;;;;;11.13;1.23;;;9.40;99.90;;;;;;5040744;28;20124;-72
2023/02/19 10:22:54;;;;;;;8.23;1.98;;;9.60;99.90;;;;;;5041508;28;20035;-72
2023/02/19 10:25:19;;;;;;;7.75;1.38;;;9.80;99.90;;;;;;5041337;28;20021;-73
2023/02/19 10:27:45;;;;;;;9.50;1.20;;;10.00;99.90;;;;;;5039781;28;21350;-75
2023/02/19 10:30:27;;;;;;;13.60;2.08;;;9.80;99.90;;;;;;5034323;28;20029;-74
2023/02/19 10:33:12;;;;;;;6.43;1.30;;;9.70;99.90;;;;;;5039846;28;20049;-74
2023/02/19 10:35:59;;;;;;;12.48;1.30;;;10.00;99.90;;;;;;5040879;28;20025;-73
2023/02/19 10:38:35;;;;;;;7.22;1.52;;;10.30;99.90;;;;;;5040529;28;20455;-72
2023/02/19 10:41:05;;;;;;;8.18;1.58;;;10.60;99.90;;;;;;5038920;28;20243;-72
2023/02/19 10:43:35;;;;;;;8.52;1.10;;;10.90;99.90;;;;;;5039566;28;20029;-73
2023/02/19 10:46:13;;;;;;;9.38;1.67;;;10.90;99.90;;;;;;5042497;28;20486;-73
2023/02/19 10:48:45;;;;;;;7.05;1.40;;;10.70;99.90;;;;;;5040576;28;20034;-72
2023/02/19 10:51:19;;;;;;;8.50;1.15;;;10.60;99.90;;;;;;5037885;28;20018;-73
2023/02/19 10:53:49;;;;;;;7.32;1.15;;;10.70;99.90;;;;;;5041119;28;20096;-71
2023/02/19 10:56:25;;;;;;;10.60;1.33;;;10.90;99.90;;;;;;5037540;28;20044;-73
2023/02/19 10:58:52;;;;;;;11.48;2.75;;;11.00;99.90;;;;;;5039710;28;20037;-72
2023/02/19 11:01:22;;;;;;;10.98;2.47;;;11.00;99.90;;;;;;5038308;28;20588;-72
2023/02/19 11:04:15;;;;;;;12.50;2.92;;;11.30;99.90;;;;;;5039123;28;20017;-71
2023/02/19 11:06:40;;;;;;;13.68;2.28;;;11.60;99.90;;;;;;5041170;28;20120;-72
2023/02/19 11:09:30;;;;;;;5.03;1.10;;;11.80;99.90;;;;;;5041042;28;20041;-72
2023/02/19 11:11:57;;;;;;;7.00;1.33;;;11.80;99.90;;;;;;5038982;28;20124;-71
2023/02/19 11:14:24;;;;;;;7.82;1.35;;;11.80;99.90;;;;;;5040254;28;20036;-73
2023/02/19 11:16:55;;;;;;;7.75;1.10;;;11.90;99.90;;;;;;5038658;28;20025;-71
2023/02/19 11:19:29;;;;;;;5.13;0.98;;;12.00;99.90;;;;;;5037892;28;20026;-71
2023/02/19 11:21:56;;;;;;;4.82;1.00;;;12.00;99.90;;;;;;5041353;28;20045;-70
2023/02/19 11:24:33;;;;;;;6.72;1.15;;;11.90;99.90;;;;;;5041458;28;20072;-71
2023/02/19 11:27:02;;;;;;;5.82;1.10;;;11.60;99.90;;;;;;5042032;28;20383;-72
2023/02/19 11:29:33;;;;;;;4.13;0.88;;;11.30;99.90;;;;;;5040553;28;20045;-73
2023/02/19 11:32:26;;;;;;;6.15;1.00;;;11.40;99.90;;;;;;5041356;28;20032;-74
2023/02/19 11:35:16;;;;;;;7.05;0.95;;;11.70;99.90;;;;;;5041607;28;21281;-72
2023/02/19 11:37:59;;;;;;;7.00;1.25;;;12.00;99.90;;;;;;5045546;28;20032;-72
2023/02/19 11:40:41;;;;;;;5.47;1.00;;;12.10;99.90;;;;;;5041907;28;20021;-72
2023/02/19 11:43:12;;;;;;;9.70;1.10;;;12.40;99.90;;;;;;5043544;28;20018;-73
2023/02/19 11:45:51;;;;;;;6.47;0.88;;;12.80;99.90;;;;;;5044943;28;20032;-71
2023/02/19 11:48:50;;;;;;;6.57;1.38;;;13.10;99.90;;;;;;5045279;28;20037;-70
2023/02/19 11:51:24;;;;;;;9.40;0.90;;;13.20;99.90;;;;;;5044713;28;20038;-71
2023/02/19 11:54:07;;;;;;;5.85;1.17;;;13.50;99.90;;;;;;5045230;28;20013;-71
2023/02/19 11:56:35;;;;;;;7.60;1.45;;;13.70;99.90;;;;;;5043665;28;20040;-73
2023/02/19 11:59:35;;;;;;;7.68;1.08;;;13.70;99.90;;;;;;5044582;28;21086;-70
2023/02/19 12:02:18;;;;;;;8.73;0.98;;;13.20;99.90;;;;;;5043828;28;20041;-72
2023/02/19 12:05:02;;;;;;;7.43;0.60;;;12.70;99.90;;;;;;5045082;28;20029;-72
2023/02/19 12:08:20;;;;;;;5.47;1.03;;;12.60;99.90;;;;;;5043535;28;20113;-70
2023/02/19 12:11:10;;;;;;;5.78;0.90;;;12.80;99.90;;;;;;5052102;28;20521;-74
2023/02/19 12:13:54;;;;;;;8.48;1.67;;;13.20;99.90;;;;;;5045291;28;20034;-72
2023/02/19 12:16:35;;;;;;;8.88;1.60;;;13.70;99.90;;;;;;5044520;28;20038;-72
2023/02/19 12:19:04;;;;;;;5.95;1.10;;;14.10;99.90;;;;;;5044657;28;20095;-72
2023/02/19 12:21:44;;;;;;;4.80;0.85;;;14.30;99.90;;;;;;5044495;28;20032;-72
2023/02/19 12:24:37;;;;;;;3.50;0.70;;;14.30;99.90;;;;;;5044063;28;20570;-70
2023/02/19 12:27:38;;;;;;;5.70;0.85;;;14.30;99.90;;;;;;5040743;28;21353;-74
2023/02/19 12:30:30;;;;;;;5.00;0.98;;;14.70;99.90;;;;;;5052473;28;20052;-71
2023/02/19 12:33:25;;;;;;;5.70;1.10;;;14.80;99.90;;;;;;5044542;28;20581;-72
2023/02/19 12:36:02;;;;;;;7.25;1.25;;;14.60;99.90;;;;;;5044737;28;20037;-71
2023/02/19 12:39:00;;;;;;;4.22;1.10;;;14.60;99.90;;;;;;5045056;28;20030;-73
2023/02/19 12:41:40;;;;;;;5.60;1.30;;;14.50;99.90;;;;;;5044909;28;20041;-72
2023/02/19 12:44:34;;;;;;;5.07;1.00;;;14.20;99.90;;;;;;5042900;28;20022;-71
2023/02/19 12:47:05;;;;;;;9.00;1.00;;;14.00;99.90;;;;;;5043236;28;20376;-71
2023/02/19 12:49:35;;;;;;;13.50;1.90;;;13.90;99.90;;;;;;5044002;28;20037;-72
2023/02/19 12:52:09;;;;;;;2.92;0.85;;;14.10;99.90;;;;;;5044329;28;20044;-72
2023/02/19 12:54:42;;;;;;;5.72;1.10;;;14.10;99.90;;;;;;5044442;28;20032;-71
2023/02/19 12:57:24;;;;;;;5.93;1.00;;;14.30;99.90;;;;;;5043723;28;20026;-73
2023/02/19 13:00:01;;;;;;;7.50;1.55;;;14.50;99.90;;;;;;5043654;28;20116;-71
2023/02/19 13:02:53;;;;;;;7.75;1.55;;;14.70;99.90;;;;;;5044018;28;20021;-71
2023/02/19 13:05:49;;;;;;;5.43;1.30;;;15.10;99.90;;;;;;5043667;28;20103;-71
2023/02/19 13:08:23;;;;;;;5.07;1.13;;;15.50;99.90;;;;;;5041889;28;20093;-72
2023/02/19 13:10:52;;;;;;;6.60;0.85;;;15.90;99.90;;;;;;5043567;28;20686;-70
2023/02/19 13:13:27;;;;;;;7.53;1.20;;;15.80;99.90;;;;;;5042164;28;20052;-73
2023/02/19 13:15:58;;;;;;;4.25;1.30;;;15.80;99.90;;;;;;5042155;28;20033;-70
2023/02/19 13:18:35;;;;;;;5.60;1.38;;;15.70;99.90;;;;;;5043979;28;20032;-72
2023/02/19 13:21:02;;;;;;;6.05;1.50;;;15.40;99.90;;;;;;5043725;28;20030;-71
2023/02/19 13:26:41;;;;;;;6.82;1.20;;;14.90;99.90;;;;;;5040062;28;20041;-69
2023/02/19 13:29:45;;;;;;;4.20;1.00;;;13.90;99.90;;;;;;5042139;28;20130;-71
2023/02/19 13:32:47;;;;;;;3.45;0.90;;;13.30;99.90;;;;;;5034707;28;20038;-72
2023/02/19 13:35:25;;;;;;;7.82;0.80;;;13.10;99.90;;;;;;5040466;28;20026;-69